Lynchburg Regional Preston Glenn Field Lynchburg US
ICAO: KLYH
IATA: LYH
Category: Medium
Scheduled Services: Yes

Elevation: 938 ft
TransAlt. 18000 ft.

Airport Communications:
ROANOKE APP/DEP:125.47
ATIS:119.8
CTAF:127.65
GND:121.9
LEESBURG RDO:109.2
TWR:127.65
UNICOM:122.95

KLYH Zoom In..

If you have problems with the map follow the link
https://www.worldairports.se/pages/airport.php?
ICAO=KLYH

Runways:

(A) RW 04 length 7100 ft width 150 ft
ILS 110.10 / hdg 36

(B) RW 17 length 3386 ft width 75 ft
---- / hdg 170

(C) RW 22 length 7100 ft width 150 ft
---- / hdg 216

(D) RW 35 length 3386 ft width 75 ft
---- / hdg 350

Location; KLYH
Day. 16 / Time. 02.54 Zulu
* Altimeter: 29.81
* Temperature: 03° c. 37.4°f.
* Wind from: 280° Speed 03 kn.
Dewpoint: 02° c.
Visibility: 7 Statute Miles.
Clouds: Overcast 200 ft.

KLYH 160254Z 28003KT 7SM OVC002 03/02 A2981 RMK AO2 SLP098 60002 T00280022 53000 $


Wind From 280°
Speed 03 kn.

 
 
jpsmedia.com for Web Design worldairports.se 2018   terms of use